Stonewall, North Carolina
Current Conditions -  °F | °C
As of 7:18 PM on Wednesday 26 Nov 2014 (Local Time) from KEWN Reporting Station
Overcast Overcast  
Wind Chill: 42°   Ceiling: 5000
Heat Index: 46°   Visibility: 10mi
Dew Point: 40°   Wind: 7mph
Humidity: 79%   Direction: 300°WNW
Pressure: 30.04"   Gusts: NA
Location:  35.14°N, 76.75°W
Report Text: KEWN 270018Z 30006KT 10SM FEW013 OVC050 08/04 A3004 RMK AO2 T00780044
Loading
Personal Weather Stations






























Interactive Weather Map New forecast layout! Learn more

10-Day Weather Forecast

Advertisements
Track Severe Weather on mobile